RLSO2: Arkansas River, Ralston, OK

                                SHEF ID:       RLSO2     Arkansas River at Ralston, OK
STATION TYPE:
Regulating: Stage = 16.00, Flow = 78729

PRECIP STAGE STAGE(2) RIV-FLOW AIR-TEMP BAT-LOAD
in ft ft cfs F volt
Ccp-Rev Ccp-Rev Ccp-Rev Ccp-Rev Ccp-Rev Ccp-Rev
(America/Chicago)
04/29 00:00 0.00 5.08 5.10 2980 55.22 12.71
04/29 01:00 0.00 5.06 5.10 2929 55.04 12.69
04/29 02:00 0.00 5.06 5.10 2929 53.78 12.65
04/29 03:00 0.00 5.06 5.07 2929 52.52 12.63
04/29 04:00 0.00 5.05 5.08 2904 51.44 12.60
04/29 05:00 0.00 5.04 5.07 2879 49.64 12.58
04/29 06:00 0.00 5.03 5.07 2854 48.20 12.57
04/29 07:00 0.00 5.03 5.06 2854 48.56 12.57
04/29 08:00 0.00 5.03 5.02 2854 52.52 12.59
04/29 09:00 0.00 4.99 5.02 2758 55.76 12.86
04/29 10:00 0.00 4.97 5.01 2714 58.28 13.27
04/29 11:00 0.00 5.00 5.02 2780 61.16 13.32
04/29 12:00 0.00 4.98 5.00 2736 65.30 13.16
04/29 13:00 0.00 4.96 5.00 2692 66.74 13.09
04/29 14:00 0.00 4.96 4.97 2692 69.80 13.07
04/29 15:00 0.00 4.91 4.96 2584 68.90 13.05
04/29 16:00 0.00 4.93 4.97 2627 69.44 13.03
04/29 17:00 0.00 4.94 4.98 2648 70.52 13.01
04/29 18:00 0.00 4.92 4.99 2605 69.98 12.99
04/29 19:00 0.00 4.96 4.99 2692 66.92 12.96
04/29 20:00 0.00 4.96 4.98 2692 63.50 12.91
04/29 21:00 0.00 4.96 4.99 2692 59.90 12.82
04/29 22:00 0.00 4.96 5.00 2692 57.38 12.79
04/29 23:00 0.00 4.96 5.00 2692 56.30 12.76
Data processed at Thu 30Apr2026 04:21 GMT

NOTICE: If you are parsing this page

Please convert to using our Data API. Starting early 2026 we will be migrating to: https://water.usace.army.mil with modern pages rendered in JavaScript. When this migration completes you will no longer be able to scrape this page! CWMSDataAPI (CDA)

Timeseries IDs (TSIDs)

TSIDs used from left to right in the data table
RALS.Precip-Inc.Total.1Hour.1Hour.Ccp-Rev
RALS.Stage.Inst.1Hour.0.Ccp-Rev
RALS.Stage-Alt.Inst.1Hour.0.Ccp-Rev
RALS.Flow.Inst.1Hour.0.Ccp-Rev
RALS.Temp-Air.Inst.1Hour.0.Ccp-Rev
RALS.Volt-Battery Load.Inst.1Hour.0.Ccp-Rev

                            

All information presented herein is the property of the government of the United States of America and may be revised or deleted at any time without prior notice. Dissemination of this information without the expressed written consent of the Public Affairs Office, Tulsa District U.S. Army Corps of Engineers is strictly prohibited. These data are gathered electronically and, as presented, have NOT undergone any form of quality control. These data are NOT guaranteed to be valid or correct.